Time;durP1;ratioP1;P1;durP2;ratioP2;P2;SDS_P1;SDS_P2;PMS_P1;PMS_P2;Temp;Humidity;BMP_temperature;BMP_pressure;BME280_temperature;BME280_humidity;BME280_pressure;Samples;Min_cycle;Max_cycle;Signal;HPM_P1;HPM_P2
2023/04/24 04:02:04;;;;;;;0.60;0.10;;;12.80;99.90;;;;;;5285443;23;20907;-71
2023/04/24 04:04:32;;;;;;;0.60;0.10;;;12.80;99.90;;;;;;4937418;29;20446;-70
2023/04/24 04:07:02;;;;;;;0.60;0.20;;;12.80;99.90;;;;;;4937694;29;20442;-70
2023/04/24 04:09:30;;;;;;;0.60;0.10;;;12.80;99.90;;;;;;4937676;29;20490;-71
2023/04/24 04:11:58;;;;;;;0.60;0.10;;;12.90;99.90;;;;;;4937594;29;20836;-70
2023/04/24 04:14:26;;;;;;;0.60;0.20;;;12.70;99.90;;;;;;4936854;29;20447;-73
2023/04/24 04:16:54;;;;;;;0.60;0.30;;;12.70;99.90;;;;;;4937397;29;20448;-71
2023/04/24 04:19:23;;;;;;;0.60;0.10;;;12.50;99.90;;;;;;4936945;29;20446;-70
2023/04/24 04:21:53;;;;;;;0.70;0.50;;;12.60;99.90;;;;;;4936703;29;20478;-71
2023/04/24 04:24:22;;;;;;;0.60;0.10;;;12.60;99.90;;;;;;4936855;29;20450;-70
2023/04/24 04:26:50;;;;;;;3.37;1.40;;;12.40;99.90;;;;;;4937554;29;20454;-70
2023/04/24 04:29:18;;;;;;;0.60;0.10;;;12.40;99.90;;;;;;4937584;29;20483;-70
2023/04/24 04:31:46;;;;;;;0.60;0.10;;;12.30;99.90;;;;;;4937016;29;21012;-71
2023/04/24 04:34:14;;;;;;;0.60;0.10;;;12.40;99.90;;;;;;4936764;29;20480;-72
2023/04/24 04:36:44;;;;;;;0.60;0.10;;;12.40;99.90;;;;;;4938350;29;20509;-71
2023/04/24 04:39:14;;;;;;;0.60;0.17;;;12.30;99.90;;;;;;4937776;29;20548;-70
2023/04/24 04:41:41;;;;;;;0.60;0.10;;;12.10;99.90;;;;;;4937071;29;20865;-70
2023/04/24 04:44:09;;;;;;;0.60;0.20;;;12.00;99.90;;;;;;4937985;29;20454;-70
2023/04/24 04:46:38;;;;;;;0.60;0.30;;;12.00;99.90;;;;;;4930409;29;20965;-71
2023/04/24 04:49:06;;;;;;;0.70;0.37;;;11.90;99.90;;;;;;4922410;29;20466;-72
2023/04/24 04:51:33;;;;;;;1.00;0.30;;;11.90;99.90;;;;;;4923375;29;20533;-70
2023/04/24 04:54:03;;;;;;;0.90;0.43;;;11.90;99.90;;;;;;4935451;29;20488;-70
2023/04/24 04:56:30;;;;;;;1.07;0.53;;;11.60;99.90;;;;;;4920535;29;20454;-71
2023/04/24 04:58:59;;;;;;;1.50;1.10;;;11.60;99.90;;;;;;4920960;29;20529;-69
2023/04/24 05:01:27;;;;;;;0.60;0.20;;;11.50;99.90;;;;;;4921693;29;20497;-73
2023/04/24 05:03:55;;;;;;;0.60;0.13;;;11.60;99.90;;;;;;4939840;29;20495;-72
2023/04/24 05:06:23;;;;;;;1.10;0.90;;;11.60;99.90;;;;;;4934112;29;20458;-72
2023/04/24 05:08:55;;;;;;;0.80;0.40;;;11.60;99.90;;;;;;4942296;29;20460;-73
2023/04/24 05:11:25;;;;;;;0.80;0.70;;;11.50;99.90;;;;;;4939503;29;21039;-72
2023/04/24 05:13:53;;;;;;;0.60;0.33;;;11.40;99.90;;;;;;4920296;29;20458;-72
2023/04/24 05:16:21;;;;;;;0.97;0.53;;;11.40;99.90;;;;;;4924398;29;20466;-70
2023/04/24 05:18:49;;;;;;;0.93;0.77;;;11.30;99.90;;;;;;4936832;29;20453;-71
2023/04/24 05:21:17;;;;;;;0.70;0.20;;;11.30;99.90;;;;;;4928435;29;20545;-71
2023/04/24 05:23:44;;;;;;;0.80;0.50;;;11.30;99.90;;;;;;4930812;29;20476;-70
2023/04/24 05:26:13;;;;;;;2.73;1.30;;;11.20;99.90;;;;;;4938868;29;20508;-71
2023/04/24 05:28:43;;;;;;;1.53;1.30;;;11.20;99.90;;;;;;4937743;29;20455;-72
2023/04/24 05:31:12;;;;;;;0.80;0.53;;;11.10;99.90;;;;;;4936743;29;20488;-70
2023/04/24 05:33:40;;;;;;;0.70;0.40;;;11.00;99.90;;;;;;4935664;29;21186;-72
2023/04/24 05:36:08;;;;;;;1.63;0.97;;;11.00;99.90;;;;;;4933788;29;20464;-71
2023/04/24 05:38:36;;;;;;;0.60;0.30;;;11.10;99.90;;;;;;4929865;29;20536;-72
2023/04/24 05:41:04;;;;;;;1.43;0.30;;;11.10;99.90;;;;;;4923364;29;20479;-71
2023/04/24 05:43:31;;;;;;;1.77;0.60;;;11.10;99.90;;;;;;4933893;29;20456;-70
2023/04/24 05:46:01;;;;;;;0.70;0.40;;;11.20;99.90;;;;;;4935234;29;20451;-72
2023/04/24 05:48:29;;;;;;;1.10;0.87;;;;;;;;;;4935272;29;20452;-71
2023/04/24 05:50:57;;;;;;;0.93;0.60;;;11.20;99.90;;;;;;4916474;29;20490;-72
2023/04/24 05:53:25;;;;;;;2.30;1.40;;;11.00;99.90;;;;;;4928883;29;20463;-72
2023/04/24 05:55:53;;;;;;;1.03;0.70;;;11.00;99.90;;;;;;4933845;29;20560;-72
2023/04/24 05:58:21;;;;;;;1.53;0.77;;;11.00;99.90;;;;;;4936561;29;20444;-70
2023/04/24 06:00:49;;;;;;;0.90;0.60;;;11.10;99.90;;;;;;4935479;29;20488;-72
2023/04/24 06:03:18;;;;;;;2.63;1.13;;;11.00;99.90;;;;;;4929255;29;20449;-72
2023/04/24 06:05:46;;;;;;;1.27;0.50;;;11.10;99.90;;;;;;4927721;29;20859;-71
2023/04/24 06:08:14;;;;;;;1.27;0.70;;;11.20;99.90;;;;;;4927312;29;20475;-73
2023/04/24 06:10:42;;;;;;;1.13;0.60;;;11.20;99.90;;;;;;4927223;29;20494;-72
2023/04/24 06:13:11;;;;;;;1.47;0.40;;;11.20;99.90;;;;;;4933628;29;20448;-71
2023/04/24 06:15:38;;;;;;;0.97;0.20;;;11.20;99.90;;;;;;4935460;29;20453;-73
2023/04/24 06:18:06;;;;;;;1.23;0.90;;;11.20;99.90;;;;;;4933917;29;20564;-72
2023/04/24 06:20:36;;;;;;;0.83;0.83;;;11.20;99.90;;;;;;4924475;29;20452;-72
2023/04/24 06:23:03;;;;;;;0.90;0.53;;;11.20;99.90;;;;;;4933934;29;20480;-71
2023/04/24 06:25:31;;;;;;;1.00;0.63;;;11.20;99.90;;;;;;4933650;29;20451;-70
2023/04/24 06:27:59;;;;;;;0.60;0.33;;;11.10;99.90;;;;;;4933899;29;20460;-71
2023/04/24 06:30:28;;;;;;;9.20;6.27;;;;;;;;;;4934425;29;20575;-72
2023/04/24 06:32:55;;;;;;;0.60;0.40;;;11.10;99.90;;;;;;4934486;29;20452;-72
2023/04/24 06:35:38;;;;;;;1.10;0.50;;;11.10;99.90;;;;;;4934339;29;20455;-71
2023/04/24 06:38:06;;;;;;;0.70;0.53;;;11.20;99.90;;;;;;4935783;29;20453;-70
2023/04/24 06:40:34;;;;;;;1.10;0.63;;;11.30;99.90;;;;;;4916905;29;20455;-72
2023/04/24 06:43:02;;;;;;;2.80;1.30;;;11.30;99.90;;;;;;4917404;29;20450;-72
2023/04/24 06:45:31;;;;;;;1.33;1.17;;;11.30;99.90;;;;;;4917192;29;20450;-72
2023/04/24 06:47:59;;;;;;;0.60;0.10;;;11.30;99.90;;;;;;4915784;29;20456;-73
2023/04/24 06:50:28;;;;;;;2.07;1.70;;;;;;;;;;4916734;29;20462;-72
2023/04/24 06:52:57;;;;;;;1.07;1.00;;;11.40;99.90;;;;;;4934214;29;20457;-72
2023/04/24 06:55:25;;;;;;;0.90;0.63;;;11.40;99.90;;;;;;4934679;29;20449;-71
2023/04/24 06:57:52;;;;;;;1.00;0.47;;;11.30;99.90;;;;;;4934726;29;20542;-72
2023/04/24 07:00:20;;;;;;;0.60;0.10;;;11.30;99.90;;;;;;4934459;29;20483;-72
2023/04/24 07:02:48;;;;;;;0.70;0.40;;;11.80;99.90;;;;;;4920641;29;20517;-72
2023/04/24 07:05:19;;;;;;;1.13;0.67;;;11.40;99.90;;;;;;4915676;29;20495;-73
2023/04/24 07:07:47;;;;;;;0.87;0.53;;;11.40;99.90;;;;;;4917867;29;20444;-72
2023/04/24 07:10:16;;;;;;;0.60;0.20;;;11.40;99.90;;;;;;4919447;29;20529;-72
2023/04/24 07:12:45;;;;;;;0.60;0.10;;;11.40;99.90;;;;;;4919427;29;20489;-72
2023/04/24 07:15:12;;;;;;;0.87;0.47;;;11.50;99.90;;;;;;4919635;29;20464;-73
2023/04/24 07:17:43;;;;;;;2.40;1.30;;;11.50;99.90;;;;;;4919347;29;20442;-71
2023/04/24 07:20:12;;;;;;;4.50;1.57;;;11.50;99.90;;;;;;4919883;29;20463;-71
2023/04/24 07:22:40;;;;;;;1.23;0.80;;;11.50;99.90;;;;;;4919624;29;20555;-72
2023/04/24 07:25:09;;;;;;;0.90;0.33;;;11.40;99.90;;;;;;4919810;29;20455;-72
2023/04/24 07:27:38;;;;;;;1.67;1.10;;;11.40;99.90;;;;;;4919658;29;20436;-72
2023/04/24 07:30:07;;;;;;;1.27;0.63;;;11.50;99.90;;;;;;4919256;29;20964;-73
2023/04/24 07:32:35;;;;;;;4.73;2.50;;;11.90;99.90;;;;;;4919005;29;20886;-72
2023/04/24 07:35:04;;;;;;;0.80;0.70;;;11.60;99.90;;;;;;4935222;29;20452;-72
2023/04/24 07:37:31;;;;;;;1.27;1.03;;;11.70;99.90;;;;;;4937894;29;20515;-73
2023/04/24 07:39:59;;;;;;;1.63;0.87;;;11.60;99.90;;;;;;4935141;29;20480;-71
2023/04/24 07:42:30;;;;;;;2.50;0.93;;;11.70;99.90;;;;;;4925952;29;20522;-73
2023/04/24 07:44:59;;;;;;;0.70;0.63;;;11.60;99.90;;;;;;4918511;29;20827;-73
2023/04/24 07:47:27;;;;;;;1.10;0.90;;;11.80;99.90;;;;;;4917969;29;20941;-72
2023/04/24 07:49:55;;;;;;;0.70;0.50;;;11.90;99.90;;;;;;4917470;29;20509;-71
2023/04/24 07:52:23;;;;;;;0.90;0.57;;;11.80;99.90;;;;;;4917871;29;20857;-73
2023/04/24 07:54:52;;;;;;;0.90;0.67;;;11.80;99.90;;;;;;4918296;29;20453;-73
2023/04/24 07:57:20;;;;;;;0.63;0.20;;;11.70;99.90;;;;;;4918511;29;20453;-71
2023/04/24 07:59:48;;;;;;;0.87;0.60;;;11.70;99.90;;;;;;4918542;29;20458;-72
2023/04/24 08:02:17;;;;;;;0.77;0.77;;;11.60;99.90;;;;;;4918321;29;20481;-73
2023/04/24 08:04:45;;;;;;;0.90;0.47;;;11.70;99.90;;;;;;4918532;29;20548;-72
2023/04/24 08:07:14;;;;;;;1.33;0.80;;;11.70;99.90;;;;;;4918593;29;20454;-73
2023/04/24 08:09:41;;;;;;;1.03;0.60;;;11.70;99.90;;;;;;4919145;29;20445;-74
2023/04/24 08:12:09;;;;;;;2.60;2.40;;;11.60;99.90;;;;;;4918137;29;20496;-73
2023/04/24 08:14:37;;;;;;;0.83;0.40;;;11.70;99.90;;;;;;4932143;29;20483;-71
2023/04/24 08:17:05;;;;;;;2.00;1.80;;;11.70;99.90;;;;;;4936872;29;20445;-72
2023/04/24 08:19:34;;;;;;;2.43;0.87;;;11.70;99.90;;;;;;4936641;29;20452;-72
2023/04/24 08:22:03;;;;;;;1.60;0.97;;;11.60;99.90;;;;;;4937313;29;20468;-72
2023/04/24 08:24:31;;;;;;;5.43;3.23;;;11.70;99.90;;;;;;4936724;29;20457;-72
2023/04/24 08:27:01;;;;;;;0.60;0.30;;;11.80;99.90;;;;;;4936994;29;20792;-71
2023/04/24 08:29:29;;;;;;;1.13;0.90;;;;;;;;;;4937170;29;20446;-70
2023/04/24 08:31:57;;;;;;;0.73;0.30;;;12.10;99.90;;;;;;4937221;29;20488;-71
2023/04/24 08:34:25;;;;;;;0.60;0.10;;;12.20;99.90;;;;;;4937259;29;20862;-73
2023/04/24 08:36:55;;;;;;;0.90;0.77;;;12.20;99.90;;;;;;4936741;29;21288;-74
2023/04/24 08:39:23;;;;;;;0.60;0.30;;;12.00;99.90;;;;;;4936704;29;20448;-71
2023/04/24 08:41:53;;;;;;;2.00;1.43;;;12.10;99.90;;;;;;4937211;29;20556;-71
2023/04/24 08:44:21;;;;;;;0.83;0.27;;;12.20;99.90;;;;;;4938810;29;20541;-71
2023/04/24 08:46:51;;;;;;;0.70;0.60;;;12.40;99.90;;;;;;4939190;29;20835;-72
2023/04/24 08:49:19;;;;;;;3.07;1.23;;;12.50;99.90;;;;;;4939104;29;20825;-72
2023/04/24 08:51:47;;;;;;;1.53;0.90;;;12.40;99.90;;;;;;4938825;29;20508;-71
2023/04/24 08:54:18;;;;;;;1.90;1.17;;;12.20;99.90;;;;;;4936739;29;20989;-72
2023/04/24 08:56:48;;;;;;;0.90;0.30;;;12.20;99.90;;;;;;4936900;29;20448;-72
2023/04/24 08:59:16;;;;;;;1.43;0.80;;;12.30;99.90;;;;;;4936371;29;20933;-72
2023/04/24 09:01:47;;;;;;;1.67;0.83;;;12.30;99.90;;;;;;4936103;29;21002;-72
2023/04/24 09:04:17;;;;;;;0.70;0.47;;;12.30;99.90;;;;;;4936402;29;20448;-73
2023/04/24 09:06:46;;;;;;;0.97;0.90;;;12.10;99.90;;;;;;4937388;29;20460;-71
2023/04/24 09:09:13;;;;;;;2.00;1.23;;;12.10;99.90;;;;;;4938292;29;20538;-72
2023/04/24 09:11:43;;;;;;;2.10;1.50;;;12.00;99.90;;;;;;4937791;29;20526;-73
2023/04/24 09:14:11;;;;;;;1.00;0.60;;;12.00;99.90;;;;;;4936224;29;20986;-73
2023/04/24 09:16:39;;;;;;;8.50;2.57;;;12.10;99.90;;;;;;4936955;29;20528;-72
2023/04/24 09:19:06;;;;;;;1.20;0.70;;;12.00;99.90;;;;;;4936612;29;20449;-70
2023/04/24 09:21:35;;;;;;;1.07;0.67;;;12.00;99.90;;;;;;4936349;29;20472;-71
2023/04/24 09:24:06;;;;;;;1.63;1.37;;;12.00;99.90;;;;;;4936591;29;20454;-70
2023/04/24 09:26:37;;;;;;;0.73;0.60;;;12.00;99.90;;;;;;4935907;29;20464;-72
2023/04/24 09:29:06;;;;;;;1.50;0.83;;;11.90;99.90;;;;;;4938380;29;20963;-72
2023/04/24 09:31:34;;;;;;;1.60;0.50;;;12.00;99.90;;;;;;4937777;29;20469;-73
2023/04/24 09:34:05;;;;;;;1.00;0.73;;;12.00;99.90;;;;;;4929498;29;20484;-73
2023/04/24 09:36:37;;;;;;;1.60;1.17;;;11.90;99.90;;;;;;4919147;29;20457;-72
2023/04/24 09:39:08;;;;;;;1.90;0.90;;;11.80;99.90;;;;;;4918429;29;20442;-72
2023/04/24 09:41:36;;;;;;;1.73;0.90;;;11.90;99.90;;;;;;4931473;29;20491;-73
2023/04/24 09:44:14;;;;;;;0.60;0.20;;;11.80;99.90;;;;;;4921291;29;20461;-72
2023/04/24 09:46:43;;;;;;;0.90;0.67;;;11.70;99.90;;;;;;4917730;29;20448;-72
2023/04/24 09:49:14;;;;;;;0.60;0.20;;;11.80;99.90;;;;;;4916759;29;20932;-72
2023/04/24 09:51:42;;;;;;;0.80;0.70;;;11.80;99.90;;;;;;4915438;29;20589;-73
2023/04/24 09:54:19;;;;;;;0.60;0.30;;;11.80;99.90;;;;;;4915819;29;20502;-72
2023/04/24 09:56:49;;;;;;;1.13;0.73;;;11.90;99.90;;;;;;4916401;29;20509;-72
2023/04/24 09:59:19;;;;;;;0.83;0.60;;;11.90;99.90;;;;;;4916444;29;20967;-73
2023/04/24 10:01:49;;;;;;;0.60;0.20;;;12.00;99.90;;;;;;4916047;29;20904;-70
2023/04/24 10:04:18;;;;;;;0.80;0.40;;;12.00;99.90;;;;;;4916105;29;20456;-71
2023/04/24 10:06:48;;;;;;;2.03;0.93;;;12.00;99.90;;;;;;4916198;29;20596;-72
2023/04/24 10:09:16;;;;;;;0.60;0.20;;;12.10;99.90;;;;;;4916874;29;20446;-71
2023/04/24 10:11:46;;;;;;;1.53;0.77;;;12.20;99.90;;;;;;4920686;29;20493;-70
2023/04/24 10:14:15;;;;;;;1.00;0.77;;;12.20;99.90;;;;;;4916685;29;20565;-72
2023/04/24 10:16:46;;;;;;;1.33;1.10;;;12.10;99.90;;;;;;4917318;29;20491;-71
2023/04/24 10:19:15;;;;;;;1.10;0.30;;;12.00;99.90;;;;;;4917096;29;20451;-73
2023/04/24 10:21:46;;;;;;;2.00;0.97;;;12.00;99.90;;;;;;4917155;29;20488;-72
2023/04/24 10:24:15;;;;;;;2.00;1.20;;;11.80;99.90;;;;;;4917768;29;20875;-74
2023/04/24 10:26:44;;;;;;;0.70;0.30;;;11.80;99.90;;;;;;4921234;29;20446;-71
2023/04/24 10:29:12;;;;;;;0.60;0.30;;;11.80;99.90;;;;;;4919131;29;20454;-73
2023/04/24 10:31:41;;;;;;;0.80;0.63;;;11.90;99.90;;;;;;4917834;29;20497;-72
2023/04/24 10:34:11;;;;;;;0.60;0.30;;;11.90;99.90;;;;;;4926943;29;20849;-72
2023/04/24 10:36:43;;;;;;;0.73;0.33;;;12.00;99.90;;;;;;4937775;29;20449;-71
2023/04/24 10:39:14;;;;;;;1.00;0.60;;;12.00;99.90;;;;;;4942341;29;20451;-72
2023/04/24 10:41:42;;;;;;;1.60;1.50;;;11.70;99.90;;;;;;4937708;29;20477;-73
2023/04/24 10:44:11;;;;;;;0.80;0.20;;;11.60;99.90;;;;;;4936676;29;20454;-72
2023/04/24 10:46:43;;;;;;;0.60;0.10;;;11.70;99.90;;;;;;4938367;29;20447;-70
2023/04/24 10:49:12;;;;;;;0.70;0.40;;;11.60;99.90;;;;;;4942241;29;20995;-72
2023/04/24 10:51:48;;;;;;;1.07;0.63;;;11.60;99.90;;;;;;4942211;29;20494;-71
2023/04/24 10:54:26;;;;;;;1.33;0.70;;;11.60;99.90;;;;;;4940869;29;20491;-71
2023/04/24 10:57:14;;;;;;;0.70;0.40;;;11.40;99.90;;;;;;4940632;29;20448;-72
2023/04/24 10:59:42;;;;;;;1.27;0.90;;;11.40;99.90;;;;;;4939845;29;20508;-73
2023/04/24 11:02:10;;;;;;;0.70;0.60;;;11.40;99.90;;;;;;4940183;29;20474;-71
2023/04/24 11:04:40;;;;;;;0.80;0.50;;;11.50;99.90;;;;;;4937522;29;20951;-72
2023/04/24 11:07:10;;;;;;;4.43;1.23;;;11.60;99.90;;;;;;4935244;29;20542;-73
2023/04/24 11:09:40;;;;;;;0.80;0.70;;;11.70;99.90;;;;;;4935445;29;20461;-72
2023/04/24 11:12:10;;;;;;;0.80;0.33;;;11.80;99.90;;;;;;4934989;29;20473;-72
2023/04/24 11:15:03;;;;;;;0.70;0.43;;;11.90;99.90;;;;;;4934137;29;20490;-72
2023/04/24 11:17:33;;;;;;;1.10;0.70;;;12.00;99.90;;;;;;4934582;29;20560;-72
2023/04/24 11:20:06;;;;;;;0.60;0.30;;;12.00;99.90;;;;;;4934640;29;20973;-72
2023/04/24 11:22:54;;;;;;;0.60;0.20;;;12.20;99.90;;;;;;4934344;29;20561;-73
2023/04/24 11:25:23;;;;;;;0.90;0.30;;;12.30;99.90;;;;;;4934869;29;20471;-72
2023/04/24 11:28:03;;;;;;;1.07;0.50;;;12.40;99.90;;;;;;4935243;29;20483;-72
2023/04/24 11:30:31;;;;;;;0.70;0.33;;;12.60;99.90;;;;;;4934683;29;20564;-72
2023/04/24 11:33:04;;;;;;;0.60;0.30;;;12.50;99.90;;;;;;4933993;29;20800;-72
2023/04/24 11:35:37;;;;;;;0.60;0.30;;;12.50;99.90;;;;;;4915785;29;20504;-73
2023/04/24 11:38:05;;;;;;;0.60;0.20;;;12.50;99.90;;;;;;4916366;29;20457;-72
2023/04/24 11:40:38;;;;;;;1.03;0.93;;;12.60;99.90;;;;;;4919546;29;20470;-72
2023/04/24 11:43:07;;;;;;;0.60;0.20;;;12.60;99.90;;;;;;4932839;29;20477;-73
2023/04/24 11:45:35;;;;;;;0.63;0.23;;;12.90;99.90;;;;;;4933949;29;20992;-72
2023/04/24 11:48:04;;;;;;;0.60;0.53;;;13.10;99.90;;;;;;4934639;29;20454;-72
2023/04/24 11:50:33;;;;;;;0.70;0.33;;;13.10;99.90;;;;;;4933827;29;21017;-72
2023/04/24 11:53:01;;;;;;;1.27;1.00;;;13.10;99.90;;;;;;4933603;29;20446;-71
2023/04/24 11:55:30;;;;;;;0.70;0.47;;;13.00;99.90;;;;;;4937800;29;20453;-72
2023/04/24 11:57:59;;;;;;;3.47;1.13;;;13.00;99.90;;;;;;4938251;29;20523;-72
2023/04/24 12:00:29;;;;;;;0.70;0.43;;;;;;;;;;4937660;29;20458;-72
2023/04/24 12:03:06;;;;;;;0.60;0.30;;;12.90;99.90;;;;;;4937661;29;20500;-71
2023/04/24 12:05:36;;;;;;;0.60;0.20;;;12.90;99.90;;;;;;4937607;29;20510;-71
2023/04/24 12:08:05;;;;;;;0.90;0.77;;;13.00;99.90;;;;;;4937380;29;20695;-73
2023/04/24 12:10:34;;;;;;;0.60;0.20;;;13.00;99.90;;;;;;4937447;29;21021;-74
2023/04/24 12:13:02;;;;;;;0.80;0.40;;;12.90;99.90;;;;;;4937263;29;20963;-72
2023/04/24 12:15:30;;;;;;;1.57;1.07;;;12.70;99.90;;;;;;4937150;29;20493;-72
2023/04/24 12:17:58;;;;;;;1.23;0.73;;;12.70;99.90;;;;;;4937269;29;20458;-73
2023/04/24 12:20:28;;;;;;;1.10;0.50;;;12.70;99.90;;;;;;4937065;29;20533;-74
2023/04/24 12:22:59;;;;;;;0.60;0.20;;;12.50;99.90;;;;;;4937092;29;20451;-73
2023/04/24 12:25:28;;;;;;;0.80;0.50;;;12.00;99.90;;;;;;4938646;29;20442;-73
2023/04/24 12:28:11;;;;;;;0.80;0.50;;;11.70;99.90;;;;;;4940802;29;20885;-71
2023/04/24 12:30:44;;;;;;;1.57;0.77;;;11.70;99.90;;;;;;4941630;29;20846;-73
2023/04/24 12:33:12;;;;;;;1.27;0.70;;;11.60;99.90;;;;;;4936259;29;20453;-71
2023/04/24 12:35:41;;;;;;;0.60;0.20;;;11.60;99.90;;;;;;4919854;29;20497;-70
2023/04/24 12:38:12;;;;;;;0.80;0.60;;;11.80;99.90;;;;;;4919350;29;20455;-72
2023/04/24 12:40:41;;;;;;;0.70;0.20;;;11.90;99.90;;;;;;4919294;29;20460;-72
2023/04/24 12:43:15;;;;;;;0.60;0.10;;;12.00;99.90;;;;;;4917347;29;20454;-73
2023/04/24 12:45:44;;;;;;;0.90;0.33;;;11.90;99.90;;;;;;4918103;29;20537;-71
2023/04/24 12:48:12;;;;;;;0.97;0.40;;;12.00;99.90;;;;;;4917795;29;20954;-73
2023/04/24 12:50:40;;;;;;;0.70;0.40;;;12.00;99.90;;;;;;4918175;29;20454;-73
2023/04/24 12:53:11;;;;;;;0.60;0.10;;;12.10;99.90;;;;;;4917913;29;20934;-73
2023/04/24 12:55:38;;;;;;;0.60;0.50;;;12.00;99.90;;;;;;4917387;29;20487;-73
2023/04/24 12:58:06;;;;;;;1.13;1.03;;;12.40;99.90;;;;;;4918533;29;20467;-73
2023/04/24 13:00:34;;;;;;;0.97;0.53;;;12.40;99.90;;;;;;4917483;29;21154;-73
2023/04/24 13:03:03;;;;;;;0.60;0.30;;;12.50;99.90;;;;;;4917078;29;20946;-72
2023/04/24 13:05:31;;;;;;;0.70;0.70;;;12.60;99.90;;;;;;4918171;29;20446;-73
2023/04/24 13:07:59;;;;;;;1.47;0.63;;;12.80;99.90;;;;;;4918921;29;20871;-73
2023/04/24 13:10:28;;;;;;;0.60;0.10;;;13.00;99.90;;;;;;4917126;29;20551;-72
2023/04/24 13:12:56;;;;;;;0.60;0.20;;;13.30;99.90;;;;;;4917046;29;20474;-73
2023/04/24 13:15:24;;;;;;;0.60;0.10;;;13.40;99.90;;;;;;4917790;29;20521;-74
2023/04/24 13:17:52;;;;;;;2.80;1.23;;;13.50;99.90;;;;;;4917208;29;20461;-71
2023/04/24 13:20:20;;;;;;;1.53;0.93;;;13.60;99.90;;;;;;4917283;29;20459;-73
2023/04/24 13:22:48;;;;;;;1.23;0.60;;;13.70;99.90;;;;;;4917511;29;20485;-72
2023/04/24 13:25:16;;;;;;;1.00;0.40;;;13.70;99.90;;;;;;4916652;29;20455;-71
2023/04/24 13:27:46;;;;;;;1.60;1.20;;;13.80;99.90;;;;;;4917119;29;20456;-73
2023/04/24 13:30:14;;;;;;;0.90;0.50;;;13.60;99.90;;;;;;4917144;29;20450;-72
2023/04/24 13:32:42;;;;;;;0.80;0.40;;;13.40;99.90;;;;;;4917220;29;20478;-72
2023/04/24 13:35:10;;;;;;;1.40;0.90;;;13.40;99.90;;;;;;4933826;29;20572;-73
2023/04/24 13:37:37;;;;;;;2.00;1.10;;;13.40;99.90;;;;;;4936052;29;20478;-71
2023/04/24 13:40:06;;;;;;;1.93;1.60;;;;;;;;;;4935774;29;20447;-72
2023/04/24 13:42:35;;;;;;;0.90;0.73;;;13.00;99.90;;;;;;4935550;29;20835;-73
2023/04/24 13:45:05;;;;;;;0.60;0.30;;;12.90;99.90;;;;;;4935659;29;20457;-74
2023/04/24 13:47:51;;;;;;;0.60;0.10;;;12.80;99.90;;;;;;4935814;29;20496;-74
2023/04/24 13:50:19;;;;;;;0.60;0.10;;;13.00;99.90;;;;;;4935434;29;20454;-72
2023/04/24 13:52:47;;;;;;;0.70;0.30;;;13.10;99.90;;;;;;4935602;29;20992;-72
2023/04/24 13:55:15;;;;;;;1.37;1.27;;;13.20;99.90;;;;;;4935232;29;20490;-73
2023/04/24 13:57:43;;;;;;;0.60;0.10;;;13.20;99.90;;;;;;4935992;29;20465;-73
2023/04/24 14:00:14;;;;;;;1.07;0.70;;;13.30;99.90;;;;;;4936033;29;20447;-72
2023/04/24 14:02:42;;;;;;;0.70;0.20;;;13.30;99.90;;;;;;4935338;29;20546;-72
2023/04/24 14:05:11;;;;;;;0.60;0.20;;;13.40;99.90;;;;;;4936220;29;20450;-72
2023/04/24 14:07:39;;;;;;;0.60;0.10;;;13.40;99.90;;;;;;4936569;29;20528;-72
2023/04/24 14:10:08;;;;;;;0.60;0.17;;;13.40;99.90;;;;;;4936204;29;20453;-72
2023/04/24 14:12:36;;;;;;;0.73;0.33;;;13.50;99.90;;;;;;4935899;29;21038;-73
2023/04/24 14:15:05;;;;;;;1.00;0.73;;;13.60;99.90;;;;;;4935688;29;20495;-75
2023/04/24 14:17:34;;;;;;;0.93;0.33;;;13.60;99.90;;;;;;4936602;29;20463;-73
2023/04/24 14:20:03;;;;;;;0.60;0.10;;;13.60;99.90;;;;;;4935655;29;20455;-72
2023/04/24 14:22:31;;;;;;;1.30;0.80;;;13.70;99.90;;;;;;4935202;29;20578;-74
2023/04/24 14:24:58;;;;;;;0.60;0.10;;;14.00;99.90;;;;;;4935387;29;20486;-72
2023/04/24 14:27:27;;;;;;;0.80;0.20;;;14.20;99.90;;;;;;4936322;29;20978;-72
2023/04/24 14:29:55;;;;;;;3.80;1.33;;;14.40;99.90;;;;;;4935869;29;20859;-71
2023/04/24 14:32:23;;;;;;;1.10;0.67;;;14.40;99.90;;;;;;4935038;29;20983;-72
2023/04/24 14:34:52;;;;;;;1.00;0.50;;;14.40;99.90;;;;;;4920974;29;20511;-73
2023/04/24 14:37:20;;;;;;;0.87;0.57;;;14.30;99.90;;;;;;4916666;29;20938;-72
2023/04/24 14:39:48;;;;;;;0.77;0.50;;;14.40;99.90;;;;;;4916283;29;20463;-72
2023/04/24 14:42:34;;;;;;;0.70;0.30;;;14.30;99.90;;;;;;4917233;29;20476;-72
2023/04/24 14:45:02;;;;;;;1.33;0.70;;;12.90;99.90;;;;;;4919026;29;20466;-72
2023/04/24 14:47:30;;;;;;;0.80;0.60;;;13.80;99.90;;;;;;4920368;29;20452;-71
2023/04/24 14:49:59;;;;;;;0.60;0.10;;;13.80;99.90;;;;;;4917460;29;20491;-70
2023/04/24 14:52:27;;;;;;;0.93;0.83;;;13.60;99.90;;;;;;4915817;29;20490;-72
2023/04/24 14:54:55;;;;;;;0.80;0.73;;;13.50;99.90;;;;;;4915464;29;20556;-72
2023/04/24 14:57:23;;;;;;;0.80;0.40;;;13.50;99.90;;;;;;4915727;29;20481;-72
2023/04/24 14:59:51;;;;;;;1.33;1.17;;;13.40;99.90;;;;;;4915891;29;20454;-72
2023/04/24 15:02:19;;;;;;;0.60;0.10;;;13.30;99.90;;;;;;4915466;29;20560;-73
2023/04/24 15:04:47;;;;;;;0.60;0.27;;;15.10;99.90;;;;;;4915233;29;20538;-72
2023/04/24 15:07:17;;;;;;;0.93;0.40;;;13.40;99.90;;;;;;4915216;29;20462;-71
2023/04/24 15:09:46;;;;;;;1.67;1.40;;;13.40;99.90;;;;;;4915846;29;20444;-73
2023/04/24 15:12:14;;;;;;;0.70;0.20;;;13.40;99.90;;;;;;4915739;29;20470;-72
2023/04/24 15:14:42;;;;;;;0.60;0.10;;;13.50;99.90;;;;;;4915896;29;20581;-72
2023/04/24 15:17:10;;;;;;;0.60;0.10;;;13.50;99.90;;;;;;4915898;29;20534;-72
2023/04/24 15:19:38;;;;;;;1.10;0.60;;;13.60;99.90;;;;;;4915891;29;20456;-72
2023/04/24 15:22:06;;;;;;;0.70;0.50;;;13.60;99.90;;;;;;4915877;29;20525;-74
2023/04/24 15:24:35;;;;;;;1.67;1.10;;;13.60;99.90;;;;;;4916226;29;20547;-72
2023/04/24 15:27:02;;;;;;;1.63;0.90;;;13.60;99.90;;;;;;4916050;29;20502;-73
2023/04/24 15:29:30;;;;;;;0.70;0.33;;;13.50;99.90;;;;;;4918948;29;20454;-71
2023/04/24 15:31:59;;;;;;;0.60;0.20;;;13.40;99.90;;;;;;4919919;29;20483;-73
2023/04/24 15:34:27;;;;;;;0.70;0.20;;;13.40;99.90;;;;;;4931195;29;20456;-73
2023/04/24 15:36:55;;;;;;;1.40;1.10;;;13.60;99.90;;;;;;4939681;29;20490;-72
2023/04/24 15:39:24;;;;;;;0.97;0.50;;;13.60;99.90;;;;;;4939407;29;20452;-72
2023/04/24 15:41:53;;;;;;;1.53;1.43;;;9.90;99.90;;;;;;4938663;29;20482;-72
2023/04/24 15:44:22;;;;;;;0.80;0.40;;;13.60;99.90;;;;;;4938220;29;20452;-71
2023/04/24 15:46:51;;;;;;;0.70;0.50;;;13.60;99.90;;;;;;4930299;29;20471;-73
2023/04/24 15:49:19;;;;;;;0.80;0.60;;;13.60;99.90;;;;;;4935705;29;20958;-73
2023/04/24 15:51:46;;;;;;;1.93;0.60;;;13.50;99.90;;;;;;4933566;29;20540;-72
2023/04/24 15:54:14;;;;;;;0.70;0.50;;;13.60;99.90;;;;;;4931756;29;20849;-73
2023/04/24 15:56:44;;;;;;;0.60;0.10;;;13.60;99.90;;;;;;4938495;29;20564;-72
2023/04/24 15:59:13;;;;;;;0.60;0.10;;;13.60;99.90;;;;;;4941219;29;20546;-74
2023/04/24 16:01:41;;;;;;;0.60;0.10;;;13.80;99.90;;;;;;4940242;29;20463;-73
2023/04/24 16:04:09;;;;;;;1.43;0.67;;;13.80;99.90;;;;;;4936719;29;20452;-74
2023/04/24 16:06:37;;;;;;;1.43;1.20;;;13.70;99.90;;;;;;4937208;29;21008;-72
2023/04/24 16:09:05;;;;;;;1.30;0.70;;;13.50;99.90;;;;;;4937471;29;20839;-72
2023/04/24 16:11:35;;;;;;;1.33;0.63;;;13.60;99.90;;;;;;4935127;29;20572;-71
2023/04/24 16:14:03;;;;;;;0.60;0.17;;;13.70;99.90;;;;;;4933955;29;20447;-72
2023/04/24 16:16:32;;;;;;;0.90;0.40;;;13.70;99.90;;;;;;4934695;29;20489;-72
2023/04/24 16:19:00;;;;;;;1.97;0.70;;;13.70;99.90;;;;;;4934824;29;20954;-72
2023/04/24 16:21:28;;;;;;;0.60;0.10;;;13.70;99.90;;;;;;4936769;29;20479;-72
2023/04/24 16:23:56;;;;;;;0.60;0.10;;;13.80;99.90;;;;;;4935111;29;20448;-71
2023/04/24 16:26:23;;;;;;;1.33;0.80;;;13.90;99.90;;;;;;4928724;29;20452;-72
2023/04/24 16:28:51;;;;;;;0.60;0.20;;;13.90;99.90;;;;;;4929763;29;20461;-73
2023/04/24 16:31:19;;;;;;;2.00;1.13;;;14.00;99.90;;;;;;4936743;29;20475;-73
2023/04/24 16:33:48;;;;;;;1.47;0.53;;;14.00;99.90;;;;;;4936832;29;20455;-71
2023/04/24 16:36:16;;;;;;;0.60;0.10;;;14.00;99.90;;;;;;4937102;29;20481;-71
2023/04/24 16:38:44;;;;;;;1.10;0.70;;;14.00;99.90;;;;;;4935376;29;20456;-72
2023/04/24 16:41:13;;;;;;;0.60;0.10;;;13.90;99.90;;;;;;4935549;29;20532;-72
2023/04/24 16:43:41;;;;;;;0.60;0.20;;;13.90;99.90;;;;;;4936702;29;20454;-71
2023/04/24 16:46:09;;;;;;;1.97;1.30;;;14.00;99.90;;;;;;4937096;29;20448;-72
2023/04/24 16:48:36;;;;;;;0.90;0.60;;;14.20;99.90;;;;;;4937195;29;20483;-71
2023/04/24 16:51:06;;;;;;;1.27;0.50;;;14.00;99.90;;;;;;4936976;29;20463;-72
2023/04/24 16:53:33;;;;;;;0.70;0.50;;;14.00;99.90;;;;;;4935472;29;20559;-72
2023/04/24 16:56:01;;;;;;;0.90;0.30;;;13.90;99.90;;;;;;4923580;29;20475;-73
2023/04/24 16:58:29;;;;;;;0.60;0.20;;;13.90;99.90;;;;;;4933591;29;20452;-73